createdAt,value
2023-04-08T00:04:46.785Z,45
2023-04-08T00:09:47.073Z,45
2023-04-08T00:14:46.774Z,44
2023-04-08T00:19:46.737Z,44
2023-04-08T00:24:46.554Z,43
2023-04-08T00:29:46.611Z,42
2023-04-08T00:34:46.586Z,42
2023-04-08T00:39:47.039Z,41
2023-04-08T00:44:46.600Z,40
2023-04-08T00:49:46.606Z,40
2023-04-08T00:54:47.011Z,40
2023-04-08T00:59:46.736Z,39
2023-04-08T01:04:46.766Z,39
2023-04-08T01:09:49.215Z,39
2023-04-08T01:14:47.824Z,38
2023-04-08T01:19:46.740Z,38
2023-04-08T01:24:48.263Z,38
2023-04-08T01:29:46.522Z,38
2023-04-08T01:34:47.136Z,38
2023-04-08T01:39:46.532Z,38
2023-04-08T01:44:46.453Z,37
2023-04-08T01:49:47.399Z,37
2023-04-08T01:54:46.602Z,37
2023-04-08T01:59:46.554Z,37
2023-04-08T02:04:46.900Z,36
2023-04-08T02:09:46.586Z,36
2023-04-08T02:14:46.411Z,35
2023-04-08T02:19:46.746Z,34
2023-04-08T02:24:46.423Z,34
2023-04-08T02:29:46.336Z,34
2023-04-08T02:34:46.374Z,34
2023-04-08T02:39:46.532Z,33
2023-04-08T02:44:46.550Z,33
2023-04-08T02:49:46.573Z,33
2023-04-08T02:54:46.520Z,32
2023-04-08T02:59:46.478Z,32
2023-04-08T03:04:46.629Z,31
2023-04-08T03:09:46.880Z,30
2023-04-08T03:14:46.668Z,29
2023-04-08T03:19:46.420Z,29
2023-04-08T03:24:46.748Z,29
2023-04-08T03:29:46.660Z,29
2023-04-08T03:34:46.457Z,29
2023-04-08T03:39:46.421Z,28
2023-04-08T03:44:46.459Z,28
2023-04-08T03:49:46.374Z,28
2023-04-08T03:54:46.587Z,29
2023-04-08T03:59:46.744Z,30
2023-04-08T04:04:46.710Z,31
2023-04-08T04:09:46.975Z,32
2023-04-08T04:14:46.577Z,32
2023-04-08T04:19:46.940Z,33
2023-04-08T04:24:46.419Z,33
2023-04-08T04:29:46.464Z,34
2023-04-08T04:34:46.525Z,35
2023-04-08T04:39:46.568Z,36
2023-04-08T04:44:46.227Z,37
2023-04-08T04:49:46.395Z,38
2023-04-08T04:54:46.526Z,39
2023-04-08T04:59:46.518Z,39
2023-04-08T05:04:46.730Z,40
2023-04-08T05:09:46.368Z,41
2023-04-08T05:14:46.328Z,41
2023-04-08T05:19:46.446Z,42
2023-04-08T05:24:46.443Z,43
2023-04-08T05:29:46.429Z,44
2023-04-08T05:34:46.174Z,44
2023-04-08T05:39:46.666Z,45
2023-04-08T05:44:46.187Z,45
2023-04-08T05:49:46.282Z,46
2023-04-08T05:54:46.441Z,46
2023-04-08T05:59:46.433Z,46
2023-04-08T06:04:46.398Z,47
2023-04-08T06:09:46.369Z,48
2023-04-08T06:14:46.128Z,48
2023-04-08T06:19:46.463Z,49
2023-04-08T06:24:46.367Z,49
2023-04-08T06:29:46.465Z,49
2023-04-08T06:34:46.284Z,49
2023-04-08T06:39:46.468Z,49
2023-04-08T06:44:46.141Z,49
2023-04-08T06:49:46.512Z,49
2023-04-08T06:54:46.274Z,49
2023-04-08T06:59:46.331Z,49
2023-04-08T07:04:46.996Z,49
2023-04-08T07:09:46.293Z,49
2023-04-08T07:14:46.329Z,49
2023-04-08T07:19:46.368Z,49
2023-04-08T07:24:46.574Z,49
2023-04-08T07:29:46.471Z,49
2023-04-08T07:34:46.442Z,48
2023-04-08T07:39:46.423Z,47
2023-04-08T07:44:46.077Z,47
2023-04-08T07:49:46.212Z,46
2023-04-08T07:54:46.670Z,46
2023-04-08T07:59:46.099Z,46
2023-04-08T08:04:46.250Z,45
2023-04-08T08:09:46.589Z,45
2023-04-08T08:14:46.757Z,45
2023-04-08T08:19:46.381Z,45
2023-04-08T08:24:46.359Z,45
2023-04-08T08:29:46.519Z,44
2023-04-08T08:34:46.799Z,44
2023-04-08T08:39:46.262Z,44
2023-04-08T08:44:46.051Z,44
2023-04-08T08:49:46.097Z,43
2023-04-08T08:54:46.586Z,43
2023-04-08T08:59:46.040Z,43
2023-04-08T09:04:46.131Z,42
2023-04-08T09:09:46.308Z,41
2023-04-08T09:14:46.137Z,41
2023-04-08T09:19:45.965Z,41
2023-04-08T09:24:46.115Z,41
2023-04-08T09:29:46.139Z,40
2023-04-08T09:34:46.221Z,40
2023-04-08T09:39:46.297Z,40
2023-04-08T09:44:46.284Z,39
2023-04-08T09:49:46.055Z,39
2023-04-08T09:54:46.261Z,39
2023-04-08T09:59:49.127Z,39
2023-04-08T10:04:47.505Z,39
2023-04-08T10:09:45.904Z,38
2023-04-08T10:14:45.914Z,37
2023-04-08T10:19:46.035Z,37
2023-04-08T10:24:45.979Z,36
2023-04-08T10:29:46.061Z,36
2023-04-08T10:34:46.116Z,36
2023-04-08T10:39:46.220Z,36
2023-04-08T10:44:46.257Z,35
2023-04-08T10:49:46.317Z,34
2023-04-08T10:54:46.128Z,33
2023-04-08T10:59:46.393Z,33
2023-04-08T11:04:45.976Z,33
2023-04-08T11:09:46.126Z,32
2023-04-08T11:14:47.808Z,32
2023-04-08T11:19:46.195Z,32
2023-04-08T11:24:45.997Z,31
2023-04-08T11:29:45.887Z,31
2023-04-08T11:34:46.112Z,30
2023-04-08T11:39:46.045Z,30
2023-04-08T11:44:46.056Z,30
2023-04-08T11:49:45.942Z,29
2023-04-08T11:54:45.924Z,29
2023-04-08T11:59:46.016Z,29
2023-04-08T12:04:46.093Z,29
2023-04-08T12:09:46.161Z,29
2023-04-08T12:14:46.345Z,28
2023-04-08T12:19:46.194Z,28
2023-04-08T12:24:46.144Z,28
2023-04-08T12:29:46.097Z,28
2023-04-08T12:34:46.416Z,28
2023-04-08T12:39:45.861Z,29
2023-04-08T12:44:45.879Z,28
2023-04-08T12:49:49.767Z,28
2023-04-08T12:54:46.285Z,28
2023-04-08T12:59:46.042Z,29
2023-04-08T13:04:45.839Z,30
2023-04-08T13:09:46.001Z,30
2023-04-08T13:14:46.040Z,30
2023-04-08T13:19:45.876Z,30
2023-04-08T13:24:46.085Z,31
2023-04-08T13:29:45.960Z,31
2023-04-08T13:34:46.102Z,31
2023-04-08T13:39:46.424Z,31
2023-04-08T13:44:45.993Z,31
2023-04-08T13:49:45.928Z,31
2023-04-08T13:54:45.867Z,31
2023-04-08T13:59:45.826Z,31
2023-04-08T14:04:45.900Z,31
2023-04-08T14:09:46.010Z,31
2023-04-08T14:14:45.898Z,30
2023-04-08T14:19:45.958Z,30
2023-04-08T14:24:46.047Z,29
2023-04-08T14:29:46.019Z,29
2023-04-08T14:34:45.908Z,29
2023-04-08T14:39:45.746Z,29
2023-04-08T14:44:45.802Z,29
2023-04-08T14:49:45.856Z,29
2023-04-08T14:54:45.888Z,29
2023-04-08T14:59:45.745Z,29
2023-04-08T15:04:46.049Z,29
2023-04-08T15:09:46.903Z,30
2023-04-08T15:14:45.832Z,30
2023-04-08T15:19:45.731Z,30
2023-04-08T15:24:47.550Z,31
2023-04-08T15:29:45.717Z,31
2023-04-08T15:34:45.736Z,31
2023-04-08T15:39:45.822Z,31
2023-04-08T15:44:45.669Z,31
2023-04-08T15:49:45.957Z,31
2023-04-08T15:54:45.762Z,31
2023-04-08T15:59:45.742Z,30
2023-04-08T16:04:45.924Z,30
2023-04-08T16:09:45.564Z,30
2023-04-08T16:14:46.156Z,29
2023-04-08T16:19:45.635Z,29
2023-04-08T16:24:45.817Z,28
2023-04-08T16:29:45.638Z,28
2023-04-08T16:34:45.811Z,28
2023-04-08T16:39:45.653Z,28
2023-04-08T16:44:45.891Z,27
2023-04-08T16:49:45.783Z,27
2023-04-08T16:54:45.699Z,28
2023-04-08T16:59:45.826Z,28
2023-04-08T17:04:45.567Z,28
2023-04-08T17:09:48.256Z,29
2023-04-08T17:14:45.814Z,30
2023-04-08T17:19:45.852Z,31
2023-04-08T17:24:47.763Z,32
2023-04-08T17:29:45.846Z,33
2023-04-08T17:34:45.867Z,34
2023-04-08T17:39:45.560Z,34
2023-04-08T17:44:45.786Z,34
2023-04-08T17:49:45.747Z,34
2023-04-08T17:54:45.899Z,35
2023-04-08T17:59:45.825Z,36
2023-04-08T18:04:45.713Z,35
2023-04-08T18:09:46.594Z,36
2023-04-08T18:14:45.602Z,36
2023-04-08T18:19:45.650Z,36
2023-04-08T18:24:45.764Z,36
2023-04-08T18:29:45.653Z,36
2023-04-08T18:34:45.718Z,37
2023-04-08T18:39:45.659Z,38
2023-04-08T18:44:45.890Z,38
2023-04-08T18:49:45.683Z,38
2023-04-08T18:54:46.677Z,39
2023-04-08T18:59:46.286Z,39
2023-04-08T19:04:45.662Z,39
2023-04-08T19:09:45.619Z,40
2023-04-08T19:14:45.597Z,40
2023-04-08T19:19:45.724Z,40
2023-04-08T19:24:45.664Z,41
2023-04-08T19:29:45.487Z,41
2023-04-08T19:34:45.505Z,41
2023-04-08T19:39:45.685Z,42
2023-04-08T19:44:45.676Z,42
2023-04-08T19:49:45.492Z,43
2023-04-08T19:54:45.816Z,44
2023-04-08T19:59:45.371Z,44
2023-04-08T20:04:45.780Z,44
2023-04-08T20:09:45.693Z,45
2023-04-08T20:14:45.404Z,45
2023-04-08T20:19:45.814Z,45
2023-04-08T20:24:45.683Z,45
2023-04-08T20:29:45.478Z,46
2023-04-08T20:34:45.469Z,46
2023-04-08T20:39:45.591Z,46
2023-04-08T20:44:45.535Z,46
2023-04-08T20:49:45.933Z,46
2023-04-08T20:54:45.752Z,46
2023-04-08T20:59:45.453Z,46
2023-04-08T21:04:45.695Z,46
2023-04-08T21:09:46.289Z,46
2023-04-08T21:14:45.548Z,46
2023-04-08T21:19:45.323Z,47
2023-04-08T21:24:45.312Z,47
2023-04-08T21:29:49.524Z,47
2023-04-08T21:34:45.626Z,47
2023-04-08T21:39:45.545Z,47
2023-04-08T21:44:45.327Z,47
2023-04-08T21:49:45.779Z,47
2023-04-08T21:54:45.353Z,47
2023-04-08T21:59:45.358Z,47
2023-04-08T22:04:45.715Z,46
2023-04-08T22:09:45.309Z,47
2023-04-08T22:14:45.319Z,47
2023-04-08T22:19:45.230Z,47
2023-04-08T22:24:45.235Z,46
2023-04-08T22:29:45.542Z,46
2023-04-08T22:34:45.207Z,47
2023-04-08T22:39:45.438Z,46
2023-04-08T22:44:45.315Z,47
2023-04-08T22:49:45.322Z,47
2023-04-08T22:54:45.320Z,47
2023-04-08T22:59:45.310Z,46
2023-04-08T23:04:45.570Z,46
2023-04-08T23:09:45.495Z,46
2023-04-08T23:14:45.715Z,46
2023-04-08T23:19:45.425Z,47
2023-04-08T23:24:45.363Z,47
2023-04-08T23:29:45.344Z,47
2023-04-08T23:34:45.652Z,47
2023-04-08T23:39:45.416Z,47
2023-04-08T23:44:45.337Z,47
2023-04-08T23:49:45.409Z,47
2023-04-08T23:54:48.317Z,47
2023-04-08T23:59:45.211Z,47
